createdAt,value
2023-05-08T00:00:56.973Z,17.16
2023-05-08T00:03:24.073Z,17.16
2023-05-08T00:05:51.075Z,17.18
2023-05-08T00:08:17.758Z,17.11
2023-05-08T00:10:44.398Z,16.94
2023-05-08T00:13:11.098Z,17.08
2023-05-08T00:15:37.810Z,17.16
2023-05-08T00:18:05.533Z,17.19
2023-05-08T00:20:34.287Z,17.23
2023-05-08T00:23:02.080Z,17.15
2023-05-08T00:25:28.741Z,17.11
2023-05-08T00:27:55.472Z,17.11
2023-05-08T00:30:22.395Z,17.08
2023-05-08T00:32:49.151Z,16.99
2023-05-08T00:35:15.941Z,16.99
2023-05-08T00:37:43.678Z,17.15
2023-05-08T00:40:11.886Z,17.12
2023-05-08T00:42:38.797Z,17.06
2023-05-08T00:45:06.465Z,17.13
2023-05-08T00:47:34.558Z,17.10
2023-05-08T00:50:01.878Z,17.02
2023-05-08T00:52:33.305Z,17.13
2023-05-08T00:55:02.204Z,17.09
2023-05-08T00:57:34.475Z,17.07
2023-05-08T01:00:04.645Z,17.08
2023-05-08T01:02:34.356Z,17.11
2023-05-08T01:05:01.253Z,17.09
2023-05-08T01:07:28.108Z,17.09
2023-05-08T01:09:54.741Z,17.10
2023-05-08T01:12:55.638Z,16.98
2023-05-08T01:15:29.616Z,16.99
2023-05-08T01:18:12.129Z,17.00
2023-05-08T01:20:52.029Z,16.96
2023-05-08T01:23:56.262Z,17.00
2023-05-08T01:27:04.545Z,16.95
2023-05-08T01:30:05.440Z,16.90
2023-05-08T01:32:57.633Z,16.99
2023-05-08T01:35:32.623Z,16.98
2023-05-08T01:38:18.525Z,16.90
2023-05-08T01:40:54.757Z,16.92
2023-05-08T01:44:04.961Z,16.86
2023-05-08T01:46:33.077Z,16.88
2023-05-08T01:49:12.369Z,16.88
2023-05-08T01:51:45.962Z,16.96
2023-05-08T01:54:19.778Z,17.03
2023-05-08T01:56:48.538Z,16.94
2023-05-08T01:59:19.559Z,16.91
2023-05-08T02:01:48.516Z,16.92
2023-05-08T02:04:17.206Z,16.94
2023-05-08T02:06:44.507Z,16.96
2023-05-08T02:09:13.322Z,16.98
2023-05-08T02:11:42.590Z,16.97
2023-05-08T02:14:12.285Z,16.91
2023-05-08T02:16:41.980Z,16.89
2023-05-08T02:19:11.535Z,16.89
2023-05-08T02:21:40.059Z,16.88
2023-05-08T02:24:06.874Z,16.82
2023-05-08T02:26:34.912Z,16.80
2023-05-08T02:29:03.686Z,16.77
2023-05-08T02:31:31.094Z,16.78
2023-05-08T02:33:59.786Z,16.87
2023-05-08T02:36:28.411Z,16.87
2023-05-08T02:38:59.840Z,16.85
2023-05-08T02:41:30.699Z,16.85
2023-05-08T02:43:58.229Z,16.84
2023-05-08T02:46:49.349Z,16.82
2023-05-08T02:49:43.713Z,16.85
2023-05-08T02:52:18.670Z,16.80
2023-05-08T02:55:04.701Z,16.85
2023-05-08T02:58:04.684Z,16.77
2023-05-08T03:00:56.563Z,16.80
2023-05-08T03:03:27.234Z,16.84
2023-05-08T03:05:56.696Z,16.86
2023-05-08T03:08:32.554Z,16.81
2023-05-08T03:11:03.862Z,16.81
2023-05-08T03:13:34.484Z,16.72
2023-05-08T03:16:04.664Z,16.77
2023-05-08T03:18:36.221Z,16.68
2023-05-08T03:21:06.266Z,16.75
2023-05-08T03:23:36.047Z,16.75
2023-05-08T03:26:04.549Z,16.61
2023-05-08T03:28:32.474Z,16.69
2023-05-08T03:31:00.759Z,16.61
2023-05-08T03:33:28.970Z,16.57
2023-05-08T03:35:56.994Z,16.56
2023-05-08T03:38:24.098Z,16.59
2023-05-08T03:40:51.053Z,16.61
2023-05-08T03:43:19.368Z,16.69
2023-05-08T03:45:47.547Z,16.61
2023-05-08T03:48:15.389Z,16.69
2023-05-08T03:50:44.840Z,16.75
2023-05-08T03:53:11.651Z,16.68
2023-05-08T03:55:38.394Z,16.69
2023-05-08T03:58:21.851Z,16.77
2023-05-08T04:01:01.364Z,16.78
2023-05-08T04:03:56.399Z,16.74
2023-05-08T04:06:56.879Z,16.75
2023-05-08T04:10:08.545Z,16.62
2023-05-08T04:12:45.496Z,16.74
2023-05-08T04:15:43.786Z,16.67
2023-05-08T04:18:14.834Z,16.70
2023-05-08T04:20:46.402Z,16.68
2023-05-08T04:23:18.548Z,16.73
2023-05-08T04:25:48.643Z,16.67
2023-05-08T04:28:15.943Z,16.66
2023-05-08T04:30:42.885Z,16.89
2023-05-08T04:33:11.056Z,16.53
2023-05-08T04:35:37.888Z,16.60
2023-05-08T04:38:04.701Z,16.73
2023-05-08T04:40:31.915Z,16.69
2023-05-08T04:42:58.981Z,16.60
2023-05-08T04:45:26.798Z,16.72
2023-05-08T04:47:53.551Z,16.74
2023-05-08T04:50:21.277Z,16.80
2023-05-08T04:52:48.489Z,16.84
2023-05-08T04:55:15.747Z,16.76
2023-05-08T04:57:44.417Z,16.77
2023-05-08T05:00:12.089Z,16.68
2023-05-08T05:02:41.092Z,16.74
2023-05-08T05:05:08.757Z,16.71
2023-05-08T05:07:35.822Z,16.69
2023-05-08T05:10:03.173Z,16.74
2023-05-08T05:12:34.261Z,16.77
2023-05-08T05:15:01.825Z,16.75
2023-05-08T05:17:35.228Z,16.81
2023-05-08T05:20:02.884Z,16.80
2023-05-08T05:22:33.262Z,16.79
2023-05-08T05:25:00.132Z,16.85
2023-05-08T05:27:27.126Z,16.78
2023-05-08T05:29:53.883Z,16.72
2023-05-08T05:32:20.787Z,16.79
2023-05-08T05:34:47.973Z,16.87
2023-05-08T05:37:14.721Z,16.97
2023-05-08T05:39:41.393Z,16.94
2023-05-08T05:42:08.396Z,16.89
2023-05-08T05:44:35.062Z,16.88
2023-05-08T05:47:02.124Z,16.85
2023-05-08T05:49:29.002Z,16.98
2023-05-08T05:51:56.138Z,16.92
2023-05-08T05:54:22.867Z,16.90
2023-05-08T05:56:49.739Z,16.95
2023-05-08T05:59:16.683Z,16.94
2023-05-08T06:01:43.537Z,16.95
2023-05-08T06:04:11.175Z,16.95
2023-05-08T06:06:39.423Z,17.03
2023-05-08T06:09:07.059Z,16.95
2023-05-08T06:11:33.718Z,16.89
2023-05-08T06:14:00.874Z,16.91
2023-05-08T06:16:30.382Z,16.83
2023-05-08T06:18:57.174Z,16.91
2023-05-08T06:21:25.408Z,16.89
2023-05-08T06:23:52.146Z,16.87
2023-05-08T06:26:18.852Z,16.85
2023-05-08T06:28:45.488Z,16.89
2023-05-08T06:31:12.399Z,16.96
2023-05-08T06:33:39.396Z,17.05
2023-05-08T06:36:06.646Z,17.10
2023-05-08T06:38:33.308Z,17.13
2023-05-08T06:41:00.018Z,17.14
2023-05-08T06:43:26.659Z,17.15
2023-05-08T06:45:53.403Z,17.02
2023-05-08T06:48:20.778Z,17.04
2023-05-08T06:50:48.078Z,17.15
2023-05-08T06:53:14.944Z,17.21
2023-05-08T06:55:43.673Z,17.06
2023-05-08T06:58:10.618Z,16.95
2023-05-08T07:00:37.288Z,17.02
2023-05-08T07:03:04.536Z,17.10
2023-05-08T07:05:31.296Z,17.06
2023-05-08T07:07:57.952Z,17.13
2023-05-08T07:10:24.728Z,17.07
2023-05-08T07:12:51.650Z,17.09
2023-05-08T07:17:51.466Z,17.28
2023-05-08T07:20:18.369Z,17.15
2023-05-08T07:22:45.123Z,17.09
2023-05-08T07:25:12.776Z,17.04
2023-05-08T07:27:39.658Z,17.03
2023-05-08T07:30:07.184Z,17.30
2023-05-08T07:32:35.271Z,17.06
2023-05-08T07:35:02.835Z,17.28
2023-05-08T07:37:31.617Z,17.33
2023-05-08T07:39:58.356Z,17.46
2023-05-08T07:42:25.564Z,17.42
2023-05-08T07:44:55.286Z,17.39
2023-05-08T07:47:22.671Z,17.34
2023-05-08T07:49:49.541Z,17.32
2023-05-08T07:52:16.924Z,17.16
2023-05-08T07:54:44.101Z,17.15
2023-05-08T07:57:11.764Z,17.08
2023-05-08T07:59:38.958Z,17.08
2023-05-08T08:02:07.277Z,17.09
2023-05-08T08:04:34.160Z,17.01
2023-05-08T08:07:03.941Z,16.97
2023-05-08T08:09:31.195Z,17.05
2023-05-08T08:11:58.418Z,16.95
2023-05-08T08:14:25.118Z,16.90
2023-05-08T08:16:52.056Z,16.97
2023-05-08T08:19:18.760Z,17.02
2023-05-08T08:21:46.295Z,16.81
2023-05-08T08:24:13.416Z,16.98
2023-05-08T08:26:40.154Z,16.88
2023-05-08T08:29:06.908Z,16.91
2023-05-08T08:31:33.683Z,16.95
2023-05-08T08:34:00.800Z,17.01
2023-05-08T08:36:27.931Z,17.19
2023-05-08T08:38:54.527Z,17.23
2023-05-08T08:41:22.125Z,17.30
2023-05-08T08:43:49.025Z,17.33
2023-05-08T08:46:20.197Z,17.32
2023-05-08T08:48:47.383Z,17.14
2023-05-08T08:51:31.778Z,17.33
2023-05-08T08:54:10.551Z,17.44
2023-05-08T08:56:40.500Z,17.55
2023-05-08T08:59:08.656Z,17.56
2023-05-08T09:01:38.485Z,17.65
2023-05-08T09:04:05.686Z,17.50
2023-05-08T09:06:37.062Z,17.71
2023-05-08T09:09:04.428Z,17.77
2023-05-08T09:11:31.258Z,17.85
2023-05-08T09:13:58.769Z,17.74
2023-05-08T09:16:27.926Z,17.70
2023-05-08T09:18:54.981Z,17.81
2023-05-08T09:21:23.289Z,17.67
2023-05-08T09:24:01.216Z,17.93
2023-05-08T09:26:35.003Z,18.02
2023-05-08T09:29:19.868Z,17.97
2023-05-08T09:31:49.082Z,18.03
2023-05-08T09:34:28.461Z,18.15
2023-05-08T09:37:15.986Z,18.19
2023-05-08T09:39:43.606Z,18.36
2023-05-08T09:42:10.478Z,18.34
2023-05-08T09:44:45.082Z,18.29
2023-05-08T09:47:21.674Z,18.25
2023-05-08T09:50:02.135Z,18.00
2023-05-08T09:52:34.706Z,18.22
2023-05-08T09:55:09.595Z,18.32
2023-05-08T09:57:40.988Z,18.34
2023-05-08T10:00:12.914Z,18.32
2023-05-08T10:02:42.593Z,18.21
2023-05-08T10:05:31.404Z,18.01
2023-05-08T10:08:01.136Z,18.15
2023-05-08T10:10:30.573Z,18.03
2023-05-08T10:12:58.366Z,18.16
2023-05-08T10:15:33.518Z,18.07
2023-05-08T10:18:03.183Z,17.89
2023-05-08T10:20:31.177Z,17.86
2023-05-08T10:22:59.028Z,17.90
2023-05-08T10:25:28.446Z,17.87
2023-05-08T10:28:21.880Z,17.79
2023-05-08T10:30:50.034Z,17.78
2023-05-08T10:33:23.907Z,17.73
2023-05-08T10:35:50.872Z,17.71
2023-05-08T10:38:19.158Z,17.66
2023-05-08T10:40:46.570Z,17.68
2023-05-08T10:43:14.446Z,17.76
2023-05-08T10:45:41.528Z,17.68
2023-05-08T10:48:30.982Z,17.71
2023-05-08T10:51:05.992Z,17.68
2023-05-08T10:53:39.938Z,17.76
2023-05-08T10:56:07.071Z,17.84
2023-05-08T10:58:36.191Z,17.79
2023-05-08T11:01:08.771Z,17.93
2023-05-08T11:03:42.271Z,17.92
2023-05-08T11:06:10.513Z,17.92
2023-05-08T11:08:48.762Z,17.86
2023-05-08T11:11:32.040Z,18.06
2023-05-08T11:14:09.349Z,18.21
2023-05-08T11:16:54.683Z,18.32
2023-05-08T11:19:23.291Z,18.43
2023-05-08T11:22:19.318Z,18.25
2023-05-08T11:25:02.757Z,18.51
2023-05-08T11:27:49.630Z,18.32
2023-05-08T11:30:39.346Z,18.50
2023-05-08T11:33:06.807Z,18.38
2023-05-08T11:35:43.326Z,18.41
2023-05-08T11:38:29.706Z,18.37
2023-05-08T11:41:01.696Z,18.40
2023-05-08T11:43:34.355Z,18.23
2023-05-08T11:46:21.818Z,18.26
2023-05-08T11:48:49.036Z,18.51
2023-05-08T11:51:18.241Z,18.65
2023-05-08T11:53:45.653Z,18.72
2023-05-08T11:56:12.830Z,18.57
2023-05-08T11:58:39.559Z,18.84
2023-05-08T12:01:06.705Z,19.05
2023-05-08T12:03:33.622Z,18.98
2023-05-08T12:06:00.371Z,19.09
2023-05-08T12:08:27.201Z,19.21
2023-05-08T12:10:56.710Z,19.19
2023-05-08T12:13:25.682Z,19.49
2023-05-08T12:16:00.932Z,19.49
2023-05-08T12:18:29.202Z,19.78
2023-05-08T12:21:00.715Z,19.79
2023-05-08T12:23:29.806Z,19.58
2023-05-08T12:26:00.677Z,19.53
2023-05-08T12:28:27.807Z,19.21
2023-05-08T12:30:55.493Z,19.22
2023-05-08T12:33:22.344Z,19.07
2023-05-08T12:35:49.342Z,18.96
2023-05-08T12:38:16.110Z,19.17
2023-05-08T12:40:45.088Z,18.91
2023-05-08T12:43:12.327Z,18.90
2023-05-08T12:45:40.950Z,18.86
2023-05-08T12:48:09.839Z,18.91
2023-05-08T12:50:40.046Z,18.98
2023-05-08T12:53:15.527Z,18.92
2023-05-08T12:55:56.929Z,19.04
2023-05-08T12:58:25.980Z,18.81
2023-05-08T13:00:53.844Z,18.86
2023-05-08T13:03:28.451Z,19.06
2023-05-08T13:05:57.008Z,18.90
2023-05-08T13:08:37.974Z,18.79
2023-05-08T13:11:06.712Z,18.66
2023-05-08T13:13:35.810Z,18.65
2023-05-08T13:16:04.966Z,18.61
2023-05-08T13:18:42.178Z,18.72
2023-05-08T13:21:08.911Z,18.68
2023-05-08T13:23:35.528Z,18.63
2023-05-08T13:26:02.277Z,18.53
2023-05-08T13:28:28.934Z,18.60
2023-05-08T13:30:55.653Z,18.65
2023-05-08T13:33:22.584Z,18.60
2023-05-08T13:35:49.258Z,18.73
2023-05-08T13:38:16.038Z,18.72
2023-05-08T13:40:42.788Z,18.57
2023-05-08T13:43:09.461Z,18.77
2023-05-08T13:45:36.274Z,18.94
2023-05-08T13:48:02.972Z,19.05
2023-05-08T13:50:29.907Z,19.11
2023-05-08T13:52:56.763Z,19.29
2023-05-08T13:55:23.729Z,19.35
2023-05-08T13:57:50.930Z,19.37
2023-05-08T14:00:18.143Z,19.28
2023-05-08T14:02:44.967Z,19.11
2023-05-08T14:05:12.278Z,19.20
2023-05-08T14:07:39.362Z,19.23
2023-05-08T14:10:06.586Z,19.18
2023-05-08T14:12:36.011Z,19.20
2023-05-08T14:15:06.419Z,19.20
2023-05-08T14:17:35.429Z,19.37
2023-05-08T14:20:02.700Z,19.48
2023-05-08T14:22:32.488Z,19.70
2023-05-08T14:24:59.269Z,19.83
2023-05-08T14:27:26.062Z,19.88
2023-05-08T14:29:53.678Z,19.74
2023-05-08T14:32:20.475Z,19.67
2023-05-08T14:34:47.226Z,19.55
2023-05-08T14:37:13.977Z,19.47
2023-05-08T14:39:41.944Z,19.38
2023-05-08T14:44:41.380Z,19.36
2023-05-08T14:47:08.108Z,19.38
2023-05-08T14:49:38.521Z,19.37
2023-05-08T14:52:06.730Z,19.41
2023-05-08T14:54:34.032Z,19.40
2023-05-08T14:57:01.003Z,19.38
2023-05-08T14:59:27.771Z,19.33
2023-05-08T15:01:54.554Z,19.32
2023-05-08T15:04:21.548Z,19.39
2023-05-08T15:06:48.374Z,19.43
2023-05-08T15:09:16.532Z,19.25
2023-05-08T15:11:43.509Z,19.21
2023-05-08T15:14:10.349Z,19.23
2023-05-08T15:16:37.136Z,19.23
2023-05-08T15:19:03.921Z,19.20
2023-05-08T15:21:30.984Z,19.16
2023-05-08T15:23:57.833Z,19.16
2023-05-08T15:26:24.457Z,19.26
2023-05-08T15:28:51.202Z,19.21
2023-05-08T15:31:18.557Z,19.21
2023-05-08T15:33:45.821Z,19.22
2023-05-08T15:36:13.624Z,19.27
2023-05-08T15:38:41.259Z,19.41
2023-05-08T15:41:12.079Z,19.51
2023-05-08T15:43:40.834Z,19.62
2023-05-08T15:46:07.601Z,19.72
2023-05-08T15:48:34.389Z,19.93
2023-05-08T15:51:01.427Z,20.04
2023-05-08T15:53:28.342Z,19.94
2023-05-08T15:55:55.708Z,19.84
2023-05-08T15:58:22.663Z,19.79
2023-05-08T16:00:49.536Z,19.70
2023-05-08T16:03:16.420Z,19.68
2023-05-08T16:05:43.375Z,19.67
2023-05-08T16:08:12.664Z,19.69
2023-05-08T16:10:40.641Z,19.51
2023-05-08T16:13:08.317Z,19.52
2023-05-08T16:15:35.330Z,19.54
2023-05-08T16:18:02.805Z,19.45
2023-05-08T16:20:29.733Z,19.46
2023-05-08T16:22:56.411Z,19.47
2023-05-08T16:25:23.244Z,19.38
2023-05-08T16:27:50.300Z,19.38
2023-05-08T16:30:18.011Z,19.45
2023-05-08T16:32:46.002Z,19.43
2023-05-08T16:35:13.694Z,19.40
2023-05-08T16:37:41.044Z,19.44
2023-05-08T16:40:08.868Z,19.35
2023-05-08T16:42:36.118Z,19.26
2023-05-08T16:45:06.221Z,19.30
2023-05-08T16:47:33.981Z,19.25
2023-05-08T16:50:01.157Z,19.33
2023-05-08T16:52:27.944Z,19.33
2023-05-08T16:54:54.638Z,19.38
2023-05-08T16:57:21.324Z,19.29
2023-05-08T16:59:47.979Z,19.32
2023-05-08T17:02:18.695Z,19.35
2023-05-08T17:04:47.121Z,19.45
2023-05-08T17:07:15.456Z,19.43
2023-05-08T17:09:42.952Z,19.42
2023-05-08T17:12:10.297Z,19.44
2023-05-08T17:14:40.529Z,19.44
2023-05-08T17:17:07.530Z,19.50
2023-05-08T17:19:34.495Z,19.33
2023-05-08T17:22:01.337Z,19.34
2023-05-08T17:24:32.372Z,19.32
2023-05-08T17:26:59.335Z,19.22
2023-05-08T17:29:26.096Z,19.12
2023-05-08T17:31:53.010Z,19.18
2023-05-08T17:34:20.513Z,19.05
2023-05-08T17:36:47.156Z,19.01
2023-05-08T17:39:13.873Z,19.03
2023-05-08T17:41:40.551Z,19.03
2023-05-08T17:44:07.303Z,19.01
2023-05-08T17:46:34.204Z,18.94
2023-05-08T17:49:01.085Z,18.97
2023-05-08T17:51:27.903Z,18.92
2023-05-08T17:53:56.400Z,18.91
2023-05-08T17:56:23.331Z,18.95
2023-05-08T17:58:52.287Z,19.03
2023-05-08T18:01:20.124Z,19.03
2023-05-08T18:03:50.982Z,18.94
2023-05-08T18:08:46.770Z,19.01
2023-05-08T18:11:21.189Z,19.01
2023-05-08T18:13:48.251Z,19.02
2023-05-08T18:16:16.480Z,19.04
2023-05-08T18:18:43.388Z,19.08
2023-05-08T18:21:10.375Z,18.98
2023-05-08T18:23:37.425Z,18.91
2023-05-08T18:26:04.212Z,18.97
2023-05-08T18:28:31.140Z,18.85
2023-05-08T18:30:57.904Z,18.88
2023-05-08T18:33:24.596Z,18.91
2023-05-08T18:35:51.725Z,18.85
2023-05-08T18:38:18.484Z,18.76
2023-05-08T18:40:45.773Z,18.74
2023-05-08T18:43:12.775Z,18.81
2023-05-08T18:45:40.545Z,18.62
2023-05-08T18:48:08.509Z,18.55
2023-05-08T18:50:35.642Z,18.68
2023-05-08T18:53:02.518Z,18.63
2023-05-08T18:55:29.203Z,18.73
2023-05-08T18:57:56.826Z,18.74
2023-05-08T19:00:23.811Z,18.68
2023-05-08T19:02:50.633Z,18.73
2023-05-08T19:05:17.859Z,18.55
2023-05-08T19:07:45.375Z,18.65
2023-05-08T19:10:12.455Z,18.53
2023-05-08T19:12:39.673Z,18.44
2023-05-08T19:15:08.825Z,18.37
2023-05-08T19:17:36.803Z,18.33
2023-05-08T19:20:04.264Z,18.35
2023-05-08T19:22:32.916Z,18.42
2023-05-08T19:25:01.370Z,18.38
2023-05-08T19:27:32.297Z,18.35
2023-05-08T19:29:59.113Z,18.32
2023-05-08T19:32:26.020Z,18.25
2023-05-08T19:34:53.480Z,18.27
2023-05-08T19:37:20.151Z,18.38
2023-05-08T19:39:46.829Z,18.39
2023-05-08T19:42:13.884Z,18.45
2023-05-08T19:44:40.910Z,18.38
2023-05-08T19:47:07.883Z,18.35
2023-05-08T19:49:34.588Z,18.40
2023-05-08T19:52:01.303Z,18.56
2023-05-08T19:54:29.650Z,18.45
2023-05-08T19:56:56.926Z,18.36
2023-05-08T19:59:23.729Z,18.23
2023-05-08T20:01:50.814Z,18.23
2023-05-08T20:04:17.552Z,18.45
2023-05-08T20:06:44.316Z,18.46
2023-05-08T20:09:11.302Z,18.31
2023-05-08T20:11:37.986Z,18.31
2023-05-08T20:14:04.784Z,18.26
2023-05-08T20:16:31.679Z,18.27
2023-05-08T20:18:58.473Z,18.22
2023-05-08T20:21:25.614Z,18.29
2023-05-08T20:23:52.346Z,18.18
2023-05-08T20:26:19.010Z,18.15
2023-05-08T20:28:45.645Z,18.09
2023-05-08T20:31:12.310Z,18.04
2023-05-08T20:33:39.008Z,18.17
2023-05-08T20:36:05.811Z,18.15
2023-05-08T20:38:32.521Z,18.12
2023-05-08T20:41:01.075Z,18.06
2023-05-08T20:43:28.346Z,17.89
2023-05-08T20:45:55.026Z,17.93
2023-05-08T20:48:21.871Z,17.85
2023-05-08T20:50:48.799Z,17.91
2023-05-08T20:53:15.518Z,17.90
2023-05-08T20:55:42.195Z,17.97
2023-05-08T20:58:09.052Z,18.09
2023-05-08T21:00:35.913Z,18.00
2023-05-08T21:03:03.164Z,18.05
2023-05-08T21:05:30.158Z,18.15
2023-05-08T21:08:00.001Z,18.18
2023-05-08T21:10:29.100Z,18.07
2023-05-08T21:12:56.371Z,18.10
2023-05-08T21:15:23.050Z,18.22
2023-05-08T21:17:50.558Z,18.04
2023-05-08T21:20:18.077Z,18.04
2023-05-08T21:22:46.136Z,18.11
2023-05-08T21:25:16.969Z,18.15
2023-05-08T21:27:43.691Z,18.03
2023-05-08T21:30:14.987Z,18.14
2023-05-08T21:32:43.010Z,18.10
2023-05-08T21:35:11.281Z,17.98
2023-05-08T21:37:38.981Z,18.02
2023-05-08T21:40:06.277Z,17.94
2023-05-08T21:42:33.235Z,17.94
2023-05-08T21:45:00.072Z,17.98
2023-05-08T21:47:29.691Z,17.88
2023-05-08T21:49:57.161Z,17.73
2023-05-08T21:52:25.584Z,17.77
2023-05-08T21:54:52.860Z,17.73
2023-05-08T21:57:19.654Z,17.85
2023-05-08T21:59:46.646Z,17.76
2023-05-08T22:02:13.507Z,17.77
2023-05-08T22:04:40.208Z,17.78
2023-05-08T22:07:06.912Z,17.70
2023-05-08T22:09:34.388Z,17.69
2023-05-08T22:12:01.082Z,17.65
2023-05-08T22:14:27.753Z,17.72
2023-05-08T22:16:54.541Z,17.70
2023-05-08T22:19:21.178Z,17.73
2023-05-08T22:21:47.888Z,17.77
2023-05-08T22:24:15.097Z,17.76
2023-05-08T22:26:41.826Z,17.84
2023-05-08T22:29:08.561Z,17.88
2023-05-08T22:31:35.443Z,17.78
2023-05-08T22:34:02.218Z,17.70
2023-05-08T22:36:29.182Z,17.63
2023-05-08T22:38:56.228Z,17.64
2023-05-08T22:41:23.646Z,17.54
2023-05-08T22:43:50.492Z,17.58
2023-05-08T22:46:18.316Z,17.44
2023-05-08T22:48:45.741Z,17.56
2023-05-08T22:51:12.512Z,17.68
2023-05-08T22:53:39.362Z,17.42
2023-05-08T22:56:06.214Z,17.44
2023-05-08T22:58:32.952Z,17.35
2023-05-08T23:00:59.897Z,17.38
2023-05-08T23:03:27.103Z,17.41
2023-05-08T23:05:53.774Z,17.52
2023-05-08T23:08:22.090Z,17.37
2023-05-08T23:10:49.202Z,17.32
2023-05-08T23:13:15.979Z,17.39
2023-05-08T23:15:43.011Z,17.45
2023-05-08T23:18:09.773Z,17.48
2023-05-08T23:20:36.504Z,17.53
2023-05-08T23:23:03.148Z,17.58
2023-05-08T23:25:29.970Z,17.49
2023-05-08T23:27:56.634Z,17.48
2023-05-08T23:30:23.291Z,17.37
2023-05-08T23:32:50.108Z,17.31
2023-05-08T23:35:17.154Z,17.39
2023-05-08T23:37:44.935Z,17.35
2023-05-08T23:40:11.993Z,17.35
2023-05-08T23:42:39.713Z,17.47
2023-05-08T23:45:07.553Z,17.41
2023-05-08T23:47:34.412Z,17.38
2023-05-08T23:50:01.156Z,17.41
2023-05-08T23:52:27.816Z,17.41
2023-05-08T23:54:54.465Z,17.49
2023-05-08T23:57:21.091Z,17.44
2023-05-08T23:59:47.811Z,17.45
